岡山グライダークラブ活動状況掲示板

岡山グライダークラブ
岡山市浦安南町639-1 岡南飛行場
 使用機:シャイベ式 SF25C型 ファルケ   JA2330
      ヴァレンティン式17E型 タイフーン  JA2342
 練習日:毎日曜日  クラブルーム:電話 086-265-1810
この掲示板は岡山グライダークラブの活動状況をお知らせする掲示板です。
!!!この掲示板は投稿規制をしています。!!!
クラブ関連各種情報は 岡山グライダークラブクラブルーム      を       .
  ブリーフイング情報は  岡山グライダークラブブリーフィングルーム  をご覧下さい。 .
※写真はクリックすると拡大して見ることが出来ます。
岡南飛行場へのアクセス等は 岡南飛行場管理事務所 をご覧ください。
クラブの ホームページ ができました。

!!!お待たせしました。新型コロナ感染症の感染が下火になったことから見学者等の受入を再開します。!!!
  注)なお、見学等の際には一般的な感染対策(マスク、ソーシャルディスタンス、黙食等)を順守してください。

 
10月23日
by OGC at 2022/10/23(日) 20:06:36 No.20221023200530  削除コメント
640 x 480 x 77,192バイト
No.1

10月23日
本日の参加者
  会員      14名
  その他     02名


@本日の様子






METAR
RJOB 230000Z VRB03KT 9999 FEW020 SCT/// 18/11 Q1015
RJOT 230000Z 27004KT 240V300 9999 FEW015 SCT025 BKN050 19/18 Q1016
RJOA 230000Z 30005KT 9999 FEW025 18/10 Q1016
TAF
RJOB 222305Z 2300/2406 34004KT 9999 FEW030 SCT045
     BECMG 2301/2303 29005KT
     BECMG 2306/2308 36007KT
     BECMG 2400/2403 28006KT
RJOT 222305Z 2300/2406 27010KT 9999 FEW030
     BECMG 2308/2310 15004KT
     BECMG 2403/2406 29009KT
RJOA 222308Z 2300/2406 29005KT 9999 FEW025
     BECMG 2310/2312 03007KT
     BECMG 2321/2400 33006KT


本日の天候は晴れ、風は穏やかな横風でした。
訓練生はソロ時間を稼いだり、基礎訓練を行ったりしていたようです。
一方、ライセンサーは雲一つない状況からサーマルは期待できないかなと思って
いましたが、意外や意外、そこそこサーマルがあり面白いコンディションでした。


解散    17:30

1番機  10:45離陸 撤収機  17:10着陸 

SF25C JA2330 ファルケ     09Flt.3h25min  
17E   JA2342 タイフーン    00Flt.0h00min
合計                    09Flt.3h25min

    << 戻る || ホームページ || 最新の掲示板へ